Time;durP1;ratioP1;P1;durP2;ratioP2;P2;SDS_P1;SDS_P2;PMS_P1;PMS_P2;Temp;Humidity;BMP_temperature;BMP_pressure;BME280_temperature;BME280_humidity;BME280_pressure;Samples;Min_cycle;Max_cycle;Signal;HPM_P1;HPM_P2
2023/11/05 00:01:23;;;;;;;1.63;1.10;;;10.10;1.00;;;;;;6239777;22;20455;-79
2023/11/05 00:03:50;;;;;;;1.77;1.23;;;10.10;1.00;;;;;;6240329;22;20023;-79
2023/11/05 00:06:17;;;;;;;1.25;1.02;;;10.10;1.00;;;;;;6240543;22;20388;-78
2023/11/05 00:08:45;;;;;;;2.08;1.20;;;10.10;1.00;;;;;;6214863;22;20019;-77
2023/11/05 00:11:12;;;;;;;1.52;1.20;;;10.10;99.90;;;;;;6264994;22;20520;-77
2023/11/05 00:13:39;;;;;;;2.17;1.48;;;10.10;99.90;;;;;;6237665;22;20029;-78
2023/11/05 00:16:07;;;;;;;2.17;1.52;;;10.10;99.90;;;;;;6241083;22;20516;-79
2023/11/05 00:18:34;;;;;;;2.38;1.60;;;10.10;99.90;;;;;;6214716;22;20027;-79
2023/11/05 00:21:01;;;;;;;3.42;1.90;;;10.10;1.00;;;;;;6215770;22;20084;-77
2023/11/05 00:23:30;;;;;;;2.75;1.65;;;10.10;1.00;;;;;;6214484;22;20034;-78
2023/11/05 00:25:57;;;;;;;3.05;2.13;;;10.10;61.20;;;;;;6237827;22;20046;-78
2023/11/05 00:28:24;;;;;;;2.88;1.80;;;10.10;99.90;;;;;;6214310;22;20019;-79
2023/11/05 00:30:51;;;;;;;2.42;1.85;;;10.20;99.90;;;;;;6238772;22;20101;-79
2023/11/05 00:33:18;;;;;;;2.47;1.70;;;10.20;99.90;;;;;;6238243;22;20394;-80
2023/11/05 00:35:45;;;;;;;1.80;1.30;;;10.20;99.90;;;;;;6263459;22;20106;-79
2023/11/05 00:38:12;;;;;;;2.25;1.48;;;10.30;99.90;;;;;;6214321;22;20396;-80
2023/11/05 00:40:40;;;;;;;2.53;1.42;;;10.30;99.90;;;;;;6212993;22;20055;-79
2023/11/05 00:43:07;;;;;;;1.63;1.25;;;10.30;99.90;;;;;;6238406;22;20019;-79
2023/11/05 00:45:34;;;;;;;2.65;1.50;;;10.30;82.90;;;;;;6239053;22;20050;-80
2023/11/05 00:48:01;;;;;;;1.70;1.33;;;10.30;1.00;;;;;;6238973;22;20415;-77
2023/11/05 00:50:28;;;;;;;2.13;1.30;;;10.30;1.00;;;;;;6212243;22;20018;-79
2023/11/05 00:52:55;;;;;;;1.70;1.30;;;10.30;1.00;;;;;;6213859;22;20449;-80
2023/11/05 00:55:22;;;;;;;1.85;1.17;;;10.30;1.00;;;;;;6216884;22;20023;-78
2023/11/05 00:57:51;;;;;;;1.65;1.30;;;10.40;1.00;;;;;;6216490;22;20429;-80
2023/11/05 01:00:18;;;;;;;1.70;1.15;;;10.40;1.00;;;;;;6242013;22;20030;-80
2023/11/05 01:02:53;;;;;;;1.88;1.25;;;10.40;1.00;;;;;;6269010;22;20034;-80
2023/11/05 01:05:20;;;;;;;1.88;1.42;;;10.40;1.00;;;;;;6242462;22;20100;-80
2023/11/05 01:07:47;;;;;;;2.20;1.60;;;10.40;1.00;;;;;;6242602;22;20491;-78
2023/11/05 01:10:14;;;;;;;1.80;1.23;;;10.40;99.90;;;;;;6217365;22;20034;-80
2023/11/05 01:12:41;;;;;;;1.77;1.15;;;10.40;99.90;;;;;;6241702;22;20025;-80
2023/11/05 01:15:08;;;;;;;1.77;1.20;;;10.40;1.00;;;;;;6267206;22;20015;-80
2023/11/05 01:17:35;;;;;;;1.40;1.20;;;10.40;99.90;;;;;;6242472;22;20023;-78
2023/11/05 01:20:03;;;;;;;1.92;1.20;;;10.40;99.90;;;;;;6217806;22;20713;-80
2023/11/05 01:22:30;;;;;;;2.88;2.00;;;10.40;1.00;;;;;;6243165;22;20030;-79
2023/11/05 01:24:57;;;;;;;3.58;1.80;;;10.40;1.00;;;;;;6241381;22;20016;-80
2023/11/05 01:27:24;;;;;;;2.40;1.85;;;10.40;1.00;;;;;;6242182;22;20476;-79
2023/11/05 01:29:51;;;;;;;2.75;2.05;;;10.40;1.00;;;;;;6216592;22;20312;-80
2023/11/05 01:32:18;;;;;;;2.67;1.98;;;10.40;1.00;;;;;;6217889;22;20019;-80
2023/11/05 01:34:45;;;;;;;1.98;1.40;;;10.40;99.90;;;;;;6242097;22;20042;-79
2023/11/05 01:37:12;;;;;;;2.15;1.77;;;10.30;1.00;;;;;;6267900;22;20034;-78
2023/11/05 01:39:40;;;;;;;2.92;1.95;;;10.30;1.00;;;;;;6242587;22;20023;-80
2023/11/05 01:42:07;;;;;;;2.20;1.40;;;10.20;99.90;;;;;;6242193;22;20101;-81
2023/11/05 01:44:34;;;;;;;2.55;1.55;;;10.20;99.90;;;;;;6215974;22;20025;-78
2023/11/05 01:47:01;;;;;;;2.72;1.92;;;10.20;99.90;;;;;;6242018;22;20337;-80
2023/11/05 01:49:28;;;;;;;2.47;1.60;;;10.10;99.90;;;;;;6267316;22;20073;-78
2023/11/05 01:51:55;;;;;;;2.20;1.48;;;10.10;99.90;;;;;;6267803;22;20381;-80
2023/11/05 01:54:22;;;;;;;3.33;2.13;;;10.10;99.90;;;;;;6216971;22;20349;-80
2023/11/05 01:56:49;;;;;;;3.92;2.33;;;10.00;99.90;;;;;;6216348;22;20421;-79
2023/11/05 01:59:16;;;;;;;3.55;2.15;;;10.00;99.90;;;;;;6215833;22;20019;-81
2023/11/05 02:01:44;;;;;;;3.42;2.20;;;9.90;99.90;;;;;;6217253;22;20478;-80
2023/11/05 02:04:11;;;;;;;3.95;2.83;;;9.90;99.90;;;;;;6241438;22;20090;-80
2023/11/05 02:06:38;;;;;;;3.15;2.25;;;9.80;99.90;;;;;;6216456;22;20469;-80
2023/11/05 02:09:06;;;;;;;3.85;2.55;;;9.80;1.00;;;;;;6241895;22;20341;-80
2023/11/05 02:11:33;;;;;;;2.92;2.50;;;9.80;1.00;;;;;;6242486;22;20023;-79
2023/11/05 02:13:59;;;;;;;4.07;2.55;;;9.80;62.10;;;;;;6215765;22;20327;-77
2023/11/05 02:16:31;;;;;;;2.75;2.38;;;9.80;99.90;;;;;;6242213;22;20023;-80
2023/11/05 02:19:02;;;;;;;3.70;2.58;;;9.80;99.90;;;;;;6242981;22;20380;-79
2023/11/05 02:21:52;;;;;;;3.17;2.22;;;9.90;99.90;;;;;;6218223;22;20058;-80
2023/11/05 02:24:19;;;;;;;4.45;3.13;;;9.90;99.90;;;;;;6245702;22;20318;-80
2023/11/05 02:26:59;;;;;;;4.32;2.97;;;9.90;99.90;;;;;;6241505;22;20043;-80
2023/11/05 02:29:26;;;;;;;4.68;3.20;;;9.90;99.90;;;;;;6240753;22;20026;-80
2023/11/05 02:31:53;;;;;;;4.03;3.20;;;9.90;99.90;;;;;;6235175;22;20039;-92
2023/11/05 02:34:23;;;;;;;4.88;4.05;;;9.90;99.90;;;;;;6222446;22;20023;-86
2023/11/05 02:36:50;;;;;;;4.47;3.65;;;9.90;99.90;;;;;;6225854;22;20026;-90
2023/11/05 02:39:17;;;;;;;4.15;2.72;;;9.80;99.90;;;;;;6224400;22;20049;-91
2023/11/05 02:41:44;;;;;;;3.40;2.70;;;9.90;99.90;;;;;;6226549;22;20019;-91
2023/11/05 02:44:11;;;;;;;4.93;3.08;;;9.90;99.90;;;;;;6251826;22;20046;-91
2023/11/05 02:46:38;;;;;;;5.97;4.40;;;9.90;99.90;;;;;;6222909;22;20015;-86
2023/11/05 02:49:08;;;;;;;5.38;3.47;;;9.90;99.90;;;;;;6216494;22;20112;-93
2023/11/05 02:51:37;;;;;;;5.95;5.05;;;9.90;99.90;;;;;;6224233;22;20353;-91
2023/11/05 02:54:12;;;;;;;5.30;4.32;;;9.90;99.90;;;;;;6219876;22;20085;-88
2023/11/05 02:56:39;;;;;;;7.30;5.53;;;9.90;99.90;;;;;;6273472;22;20170;-92
2023/11/05 02:59:06;;;;;;;7.00;5.30;;;9.80;99.90;;;;;;6226751;22;20036;-88
2023/11/05 03:01:34;;;;;;;5.75;4.25;;;9.90;99.90;;;;;;6229722;22;20027;-92
2023/11/05 03:04:02;;;;;;;5.97;4.45;;;9.90;99.90;;;;;;6234515;22;20020;-87
2023/11/05 03:06:29;;;;;;;7.88;4.82;;;9.90;1.00;;;;;;6233384;22;20043;-91
2023/11/05 03:08:56;;;;;;;7.32;5.63;;;9.90;1.00;;;;;;6257948;22;20035;-86
2023/11/05 03:11:23;;;;;;;6.20;4.50;;;9.80;1.00;;;;;;6222880;22;20015;-93
2023/11/05 03:13:49;;;;;;;5.15;4.35;;;9.90;1.00;;;;;;6221777;22;20318;-90
2023/11/05 03:16:16;;;;;;;5.78;4.18;;;9.90;1.00;;;;;;6221660;22;20078;-90
2023/11/05 03:18:44;;;;;;;5.45;3.70;;;9.90;99.90;;;;;;6222578;22;20099;-92
2023/11/05 03:21:15;;;;;;;3.97;3.05;;;9.90;99.90;;;;;;6223879;22;20098;-89
2023/11/05 03:23:42;;;;;;;3.95;3.17;;;9.80;99.90;;;;;;6224225;22;20019;-92
2023/11/05 03:26:09;;;;;;;5.55;4.00;;;9.80;99.90;;;;;;6224558;22;20098;-92
2023/11/05 03:28:37;;;;;;;5.75;3.15;;;9.80;99.90;;;;;;6199686;22;20020;-90
2023/11/05 03:31:06;;;;;;;4.28;3.20;;;9.80;99.90;;;;;;6275774;22;20074;-90
2023/11/05 03:33:33;;;;;;;5.43;3.67;;;9.80;99.90;;;;;;6272792;22;20669;-89
2023/11/05 03:36:00;;;;;;;4.32;3.05;;;9.80;99.90;;;;;;6227578;22;20016;-91
2023/11/05 03:38:27;;;;;;;3.83;2.97;;;9.90;99.90;;;;;;6224429;22;20075;-89
2023/11/05 03:40:54;;;;;;;3.80;2.67;;;9.80;58.00;;;;;;6200046;22;20020;-89
2023/11/05 03:43:22;;;;;;;4.70;2.60;;;9.90;53.60;;;;;;6225331;22;20026;-90
2023/11/05 03:45:49;;;;;;;3.53;2.33;;;9.90;99.90;;;;;;6249418;22;20530;-93
2023/11/05 03:48:16;;;;;;;3.30;2.47;;;9.90;99.90;;;;;;6223909;22;20109;-89
2023/11/05 03:50:43;;;;;;;3.97;2.70;;;9.80;99.90;;;;;;6223945;22;20042;-91
2023/11/05 03:53:10;;;;;;;4.82;3.03;;;9.80;1.00;;;;;;6237978;22;20012;-90
2023/11/05 03:55:37;;;;;;;4.35;2.55;;;9.80;1.00;;;;;;6225815;22;20024;-89
2023/11/05 06:04:19;;;;;;;7.57;5.68;;;9.40;99.90;;;;;;6238902;22;20094;-76
2023/11/05 06:06:46;;;;;;;6.32;4.60;;;9.50;99.90;;;;;;6237380;22;20468;-77
2023/11/05 06:09:16;;;;;;;7.78;5.10;;;9.50;1.00;;;;;;6239165;22;20453;-77
2023/11/05 06:11:43;;;;;;;8.07;6.10;;;9.40;1.00;;;;;;6262584;22;20398;-77
2023/11/05 06:14:09;;;;;;;8.73;6.00;;;9.40;99.90;;;;;;6261828;22;20476;-78
2023/11/05 06:16:37;;;;;;;9.57;6.72;;;9.40;1.00;;;;;;6263208;22;20028;-77
2023/11/05 06:19:04;;;;;;;10.25;5.93;;;9.40;1.00;;;;;;6263481;22;20020;-91
2023/11/05 06:21:31;;;;;;;10.50;7.18;;;9.40;23.70;;;;;;6267432;22;20027;-87
2023/11/05 06:23:58;;;;;;;7.93;6.10;;;9.40;1.00;;;;;;6268894;22;20024;-84
2023/11/05 06:26:25;;;;;;;7.03;5.60;;;9.40;1.00;;;;;;6268582;22;20054;-88
2023/11/05 06:28:53;;;;;;;8.18;6.10;;;9.50;1.00;;;;;;6244577;22;20027;-86
2023/11/05 06:31:19;;;;;;;8.15;6.22;;;9.40;99.90;;;;;;6267093;22;20082;-84
2023/11/05 06:33:46;;;;;;;9.40;6.47;;;9.40;99.90;;;;;;6267378;22;20027;-82
2023/11/05 06:36:13;;;;;;;6.32;5.35;;;9.40;99.90;;;;;;6269951;22;20380;-83
2023/11/05 06:38:40;;;;;;;6.80;4.82;;;9.50;1.00;;;;;;6246818;22;20020;-87
2023/11/05 06:41:08;;;;;;;5.93;4.68;;;9.40;50.10;;;;;;6271010;22;20050;-84
2023/11/05 06:43:35;;;;;;;7.07;5.05;;;9.40;40.50;;;;;;6265968;22;20468;-79
2023/11/05 06:46:02;;;;;;;5.57;4.57;;;9.30;1.00;;;;;;6268288;22;20026;-87
2023/11/05 06:48:30;;;;;;;6.18;4.15;;;9.30;99.90;;;;;;6241580;22;20485;-89
2023/11/05 06:50:57;;;;;;;4.70;3.35;;;9.30;99.90;;;;;;6262622;22;20094;-76
2023/11/05 06:53:24;;;;;;;5.07;2.92;;;9.30;99.90;;;;;;6265461;22;20465;-76
2023/11/05 06:55:50;;;;;;;5.15;3.42;;;9.30;99.90;;;;;;6267921;22;20440;-76
2023/11/05 06:58:19;;;;;;;4.43;3.13;;;9.40;99.90;;;;;;6242159;22;20337;-76
2023/11/05 07:00:46;;;;;;;4.38;3.65;;;9.40;49.90;;;;;;6241709;22;20106;-76
2023/11/05 07:03:13;;;;;;;4.55;3.13;;;9.40;1.00;;;;;;6253371;22;20035;-76
2023/11/05 07:05:41;;;;;;;3.63;2.75;;;9.40;1.00;;;;;;6208749;23;20407;-76
2023/11/05 07:08:07;;;;;;;4.65;3.78;;;9.40;99.90;;;;;;6236359;23;20031;-75
2023/11/05 07:10:34;;;;;;;3.83;3.35;;;9.40;2.50;;;;;;6237421;23;20032;-78
2023/11/05 07:13:02;;;;;;;4.18;3.15;;;9.40;1.00;;;;;;6236385;23;20058;-82
2023/11/05 07:15:29;;;;;;;5.10;3.38;;;9.40;1.00;;;;;;6232623;23;20020;-76
2023/11/05 07:17:57;;;;;;;3.35;2.85;;;9.40;1.00;;;;;;6233312;23;20436;-78
2023/11/05 07:20:24;;;;;;;4.22;3.17;;;9.40;99.90;;;;;;6209161;23;20024;-85
2023/11/05 07:22:52;;;;;;;3.17;2.38;;;9.50;99.90;;;;;;6233835;23;20078;-77
2023/11/05 07:25:19;;;;;;;2.83;2.17;;;9.50;99.90;;;;;;6233955;23;20019;-76
2023/11/05 07:27:47;;;;;;;3.35;2.72;;;9.50;99.90;;;;;;6209364;23;20032;-76
2023/11/05 07:30:15;;;;;;;3.45;2.58;;;9.50;99.90;;;;;;6231915;23;20024;-76
2023/11/05 07:32:42;;;;;;;3.00;2.50;;;9.50;99.90;;;;;;6209460;23;20086;-76
2023/11/05 07:35:10;;;;;;;4.10;3.08;;;9.50;99.90;;;;;;6236072;23;20020;-76
2023/11/05 07:37:36;;;;;;;4.40;3.33;;;9.50;32.00;;;;;;6237269;23;20094;-77
2023/11/05 07:40:06;;;;;;;4.78;3.38;;;9.50;38.70;;;;;;6212401;23;20092;-76
2023/11/05 07:42:33;;;;;;;3.35;2.72;;;9.50;1.00;;;;;;6236577;23;20023;-78
2023/11/05 07:45:00;;;;;;;4.93;2.95;;;9.60;1.00;;;;;;6233129;23;20032;-78
2023/11/05 07:47:27;;;;;;;2.72;2.20;;;9.60;1.00;;;;;;6178822;23;20027;-78
2023/11/05 07:49:54;;;;;;;3.72;2.33;;;9.60;1.00;;;;;;6228535;23;20023;-76
2023/11/05 07:52:21;;;;;;;3.15;2.00;;;9.70;1.00;;;;;;6229914;23;20216;-76
2023/11/05 07:54:48;;;;;;;3.67;2.00;;;9.70;1.00;;;;;;6203600;23;20020;-76
2023/11/05 07:57:15;;;;;;;3.85;2.63;;;9.70;1.00;;;;;;6227621;23;20020;-75
2023/11/05 07:59:43;;;;;;;5.30;3.28;;;9.70;1.00;;;;;;6229141;23;20376;-76
2023/11/05 08:02:10;;;;;;;3.95;2.55;;;9.70;1.00;;;;;;6226278;23;20028;-75
2023/11/05 08:04:42;;;;;;;3.13;1.92;;;9.70;1.00;;;;;;6227644;22;20036;-79
2023/11/05 08:07:10;;;;;;;2.75;2.10;;;9.70;1.00;;;;;;6179441;23;20932;-76
2023/11/05 08:09:37;;;;;;;2.28;1.83;;;9.70;1.00;;;;;;6228897;23;20059;-77
2023/11/05 08:12:05;;;;;;;2.50;1.80;;;9.70;1.00;;;;;;6228564;23;20028;-76
2023/11/05 08:14:32;;;;;;;3.03;1.98;;;9.70;99.90;;;;;;6229464;23;20031;-76
2023/11/05 08:16:59;;;;;;;4.38;1.98;;;9.70;99.90;;;;;;6234528;22;20334;-76
2023/11/05 08:19:25;;;;;;;2.58;1.58;;;9.70;99.90;;;;;;6234128;22;20027;-75
2023/11/05 08:21:53;;;;;;;2.38;1.52;;;9.70;99.90;;;;;;6260159;22;20074;-76
2023/11/05 08:24:20;;;;;;;3.78;1.60;;;9.70;99.90;;;;;;6259748;22;20047;-75
2023/11/05 08:26:47;;;;;;;1.23;1.08;;;9.70;99.90;;;;;;6183999;22;20027;-76
2023/11/05 08:29:14;;;;;;;3.22;1.52;;;9.70;99.90;;;;;;6234711;22;20728;-76
2023/11/05 08:31:42;;;;;;;2.70;1.10;;;9.80;99.90;;;;;;6234607;22;20058;-86
2023/11/05 08:34:13;;;;;;;3.88;1.58;;;9.90;99.90;;;;;;6233992;22;20400;-76
2023/11/05 08:36:40;;;;;;;1.85;1.30;;;9.90;99.90;;;;;;6233683;22;20020;-76
2023/11/05 08:39:08;;;;;;;3.42;1.83;;;9.90;99.90;;;;;;6234303;22;20034;-86
2023/11/05 08:41:35;;;;;;;4.10;1.70;;;9.90;99.90;;;;;;6208097;22;20023;-76
2023/11/05 08:44:03;;;;;;;2.40;1.48;;;9.90;99.90;;;;;;6255712;22;20039;-76
2023/11/05 08:46:33;;;;;;;1.75;1.23;;;9.90;99.90;;;;;;6206945;22;20822;-87
2023/11/05 08:49:00;;;;;;;1.98;1.42;;;10.00;99.90;;;;;;6233613;22;20038;-76
2023/11/05 08:51:28;;;;;;;3.17;1.55;;;10.00;99.90;;;;;;6260526;22;20586;-76
2023/11/05 08:53:55;;;;;;;3.45;2.03;;;10.00;99.90;;;;;;6232967;22;20047;-84
2023/11/05 08:56:22;;;;;;;1.80;1.08;;;10.00;99.90;;;;;;6211215;22;20066;-82
2023/11/05 08:58:51;;;;;;;1.58;1.10;;;10.10;99.90;;;;;;6238381;22;20030;-78
2023/11/05 09:01:19;;;;;;;2.40;1.10;;;10.10;99.90;;;;;;6186181;22;20082;-76
2023/11/05 09:03:46;;;;;;;1.63;0.95;;;10.00;99.90;;;;;;6235438;22;20024;-77
2023/11/05 09:06:13;;;;;;;0.82;0.75;;;10.10;99.90;;;;;;6210151;22;20476;-76
2023/11/05 09:08:41;;;;;;;1.10;0.90;;;10.10;99.90;;;;;;6230450;22;20101;-76
2023/11/05 09:11:08;;;;;;;1.70;1.23;;;10.10;99.90;;;;;;6259548;22;20034;-76
2023/11/05 09:13:37;;;;;;;1.13;0.82;;;10.10;99.90;;;;;;6232613;22;20030;-83
2023/11/05 09:16:07;;;;;;;2.95;0.88;;;10.10;99.90;;;;;;6210235;22;20020;-89
2023/11/05 09:18:34;;;;;;;1.92;0.93;;;10.20;99.90;;;;;;6212682;22;20028;-77
2023/11/05 09:21:02;;;;;;;1.10;0.52;;;10.20;99.90;;;;;;6209300;22;20065;-75
2023/11/05 09:23:29;;;;;;;1.30;0.75;;;10.30;99.90;;;;;;6233703;22;20019;-75
2023/11/05 09:25:57;;;;;;;0.65;0.55;;;10.40;99.90;;;;;;6209460;22;20031;-75
2023/11/05 09:28:25;;;;;;;1.05;0.77;;;10.50;99.90;;;;;;6210435;22;20594;-75
2023/11/05 09:30:53;;;;;;;0.95;0.70;;;10.50;99.90;;;;;;6233946;22;20020;-75
2023/11/05 09:33:21;;;;;;;2.50;0.60;;;10.50;99.90;;;;;;6261259;22;20031;-75
2023/11/05 09:35:48;;;;;;;2.03;1.08;;;10.50;99.90;;;;;;6234891;22;20023;-74
2023/11/05 09:38:16;;;;;;;1.13;0.80;;;10.60;99.90;;;;;;6263762;22;20046;-87
2023/11/05 09:40:43;;;;;;;1.52;0.60;;;10.60;99.90;;;;;;6237802;22;20590;-77
2023/11/05 09:43:10;;;;;;;0.90;0.77;;;10.70;99.90;;;;;;6235296;22;20043;-75
2023/11/05 09:45:37;;;;;;;1.30;0.52;;;10.70;99.90;;;;;;6261860;22;20019;-75
2023/11/05 09:48:06;;;;;;;1.13;0.80;;;10.70;99.90;;;;;;6190598;22;20048;-82
2023/11/05 09:50:37;;;;;;;1.48;0.70;;;10.80;99.90;;;;;;6240764;22;20051;-75
2023/11/05 09:53:15;;;;;;;1.42;0.45;;;10.90;99.90;;;;;;6264109;22;20026;-76
2023/11/05 09:55:44;;;;;;;1.48;0.50;;;10.90;99.90;;;;;;6268547;22;20020;-77
2023/11/05 09:58:15;;;;;;;1.05;0.55;;;10.90;99.90;;;;;;6267099;22;20053;-80
2023/11/05 10:00:43;;;;;;;0.68;0.50;;;10.80;99.90;;;;;;6265545;22;20449;-81
2023/11/05 10:03:12;;;;;;;1.25;0.65;;;10.90;99.90;;;;;;6263840;22;20074;-86
2023/11/05 10:05:44;;;;;;;0.63;0.40;;;10.90;99.90;;;;;;6261881;22;20468;-76
2023/11/05 10:08:12;;;;;;;0.68;0.60;;;10.90;99.90;;;;;;6210116;22;20535;-76
2023/11/05 10:10:42;;;;;;;1.25;0.50;;;10.90;99.90;;;;;;6260527;22;20031;-77
2023/11/05 10:13:10;;;;;;;2.20;0.80;;;10.90;99.90;;;;;;6233071;22;20027;-76
2023/11/05 10:15:38;;;;;;;0.82;0.60;;;10.90;99.90;;;;;;6207928;22;20392;-80
2023/11/05 10:18:05;;;;;;;1.02;0.70;;;11.00;99.90;;;;;;6232684;22;20024;-76
2023/11/05 10:20:33;;;;;;;0.70;0.55;;;11.00;99.90;;;;;;6208461;22;20024;-76
2023/11/05 10:23:04;;;;;;;1.00;0.60;;;11.00;99.90;;;;;;6233645;22;20031;-76
2023/11/05 10:25:31;;;;;;;1.40;0.68;;;11.00;99.90;;;;;;6233434;22;20023;-76
2023/11/05 10:27:58;;;;;;;1.42;0.60;;;11.00;99.90;;;;;;6233512;22;20027;-76
2023/11/05 10:30:26;;;;;;;0.82;0.80;;;11.10;99.90;;;;;;6211396;22;20337;-78
2023/11/05 10:32:53;;;;;;;0.98;0.55;;;11.10;99.90;;;;;;6214516;22;20020;-76
2023/11/05 10:35:22;;;;;;;0.65;0.47;;;11.20;99.90;;;;;;6213291;22;20020;-75
2023/11/05 10:37:51;;;;;;;0.80;0.60;;;11.30;99.90;;;;;;6237899;22;20106;-77
2023/11/05 10:40:19;;;;;;;1.10;0.70;;;11.30;99.90;;;;;;6237964;22;20024;-76
2023/11/05 10:42:49;;;;;;;0.45;0.45;;;11.40;99.90;;;;;;6237341;22;20406;-77
2023/11/05 10:45:17;;;;;;;0.68;0.63;;;11.50;99.90;;;;;;6263471;22;20391;-80
2023/11/05 10:47:48;;;;;;;1.00;0.50;;;11.60;97.50;;;;;;6235118;22;20019;-75
2023/11/05 10:50:23;;;;;;;2.30;0.70;;;11.60;93.70;;;;;;6264823;22;20512;-76
2023/11/05 10:52:54;;;;;;;0.60;0.50;;;11.60;93.80;;;;;;6238299;22;20034;-75
2023/11/05 10:55:36;;;;;;;0.75;0.55;;;11.60;92.30;;;;;;6239071;22;20028;-76
2023/11/05 10:58:05;;;;;;;0.63;0.47;;;11.60;93.30;;;;;;6212057;22;20027;-76
2023/11/05 11:00:55;;;;;;;1.17;0.52;;;11.70;83.30;;;;;;6239987;22;20091;-76
2023/11/05 11:03:25;;;;;;;0.43;0.35;;;11.70;89.20;;;;;;6212046;22;20213;-77
2023/11/05 11:05:55;;;;;;;0.63;0.40;;;11.80;81.20;;;;;;6213410;22;20205;-76
2023/11/05 11:08:25;;;;;;;0.52;0.40;;;11.90;79.00;;;;;;6187376;22;20448;-76
2023/11/05 11:11:11;;;;;;;0.85;0.40;;;12.00;76.40;;;;;;6212698;22;20019;-76
2023/11/05 11:13:47;;;;;;;0.43;0.40;;;12.20;66.70;;;;;;6264488;22;20030;-76
2023/11/05 11:16:28;;;;;;;0.98;0.50;;;12.20;52.80;;;;;;6211945;22;20027;-76
2023/11/05 11:18:55;;;;;;;0.38;0.38;;;12.30;52.30;;;;;;6237986;22;20487;-76
2023/11/05 11:21:22;;;;;;;1.08;0.40;;;12.40;45.90;;;;;;6187111;22;20097;-84
2023/11/05 11:23:52;;;;;;;1.98;1.00;;;12.50;38.20;;;;;;6263620;22;20074;-77
2023/11/05 11:26:24;;;;;;;1.23;0.60;;;12.50;33.00;;;;;;6212583;22;20452;-77
2023/11/05 11:28:57;;;;;;;1.40;0.70;;;12.60;33.20;;;;;;6187832;22;20030;-76
2023/11/05 11:31:25;;;;;;;1.00;0.90;;;12.80;32.20;;;;;;6186982;22;20058;-79
2023/11/05 11:33:52;;;;;;;1.02;0.60;;;13.10;27.00;;;;;;6211217;22;20027;-81
2023/11/05 11:36:19;;;;;;;1.25;0.77;;;13.20;22.00;;;;;;6211892;22;20023;-75
2023/11/05 11:38:47;;;;;;;1.90;0.90;;;13.40;29.80;;;;;;6212390;22;20027;-75
2023/11/05 11:41:14;;;;;;;1.45;0.55;;;13.50;24.50;;;;;;6210655;22;20042;-75
2023/11/05 11:43:41;;;;;;;0.98;0.50;;;13.60;11.80;;;;;;6236240;22;20027;-79
2023/11/05 11:46:08;;;;;;;0.43;0.40;;;13.60;8.70;;;;;;6206834;22;20020;-75
2023/11/05 11:48:35;;;;;;;0.68;0.52;;;13.60;5.20;;;;;;6235547;22;20030;-76
2023/11/05 11:51:06;;;;;;;0.68;0.50;;;13.70;1.20;;;;;;6211759;22;20325;-79
2023/11/05 11:53:39;;;;;;;0.85;0.60;;;13.70;1.00;;;;;;6190866;22;20458;-80
2023/11/05 11:56:07;;;;;;;0.93;0.50;;;13.90;1.00;;;;;;6236661;22;20218;-76
2023/11/05 11:58:38;;;;;;;0.90;0.80;;;14.00;1.00;;;;;;6210861;22;20027;-76
2023/11/05 12:01:10;;;;;;;0.95;0.63;;;13.90;1.00;;;;;;6210794;22;20101;-79
2023/11/05 12:03:37;;;;;;;0.93;0.60;;;14.00;1.00;;;;;;6262136;22;20098;-74
2023/11/05 12:06:04;;;;;;;0.63;0.60;;;14.00;1.00;;;;;;6210328;22;20160;-74
2023/11/05 12:08:35;;;;;;;0.73;0.70;;;14.10;1.00;;;;;;6235550;22;20094;-75
2023/11/05 12:11:09;;;;;;;0.75;0.43;;;14.50;1.00;;;;;;6235447;22;20024;-76
2023/11/05 12:13:42;;;;;;;1.05;0.43;;;14.60;1.00;;;;;;6236009;22;20027;-75
2023/11/05 12:16:11;;;;;;;0.32;0.32;;;14.60;1.00;;;;;;6233842;22;20028;-75
2023/11/05 12:18:39;;;;;;;0.80;0.50;;;14.60;1.00;;;;;;6209573;22;20015;-75
2023/11/05 12:21:09;;;;;;;1.27;0.50;;;14.50;1.00;;;;;;6235106;22;20333;-77
2023/11/05 12:23:37;;;;;;;0.80;0.63;;;14.80;1.00;;;;;;6210449;22;20364;-76
2023/11/05 12:26:05;;;;;;;0.75;0.50;;;15.20;1.00;;;;;;6261459;22;20028;-77
2023/11/05 12:28:32;;;;;;;0.75;0.50;;;15.30;1.00;;;;;;6209121;22;20206;-76
2023/11/05 12:31:01;;;;;;;0.95;0.60;;;15.10;1.00;;;;;;6184825;22;20024;-75
2023/11/05 12:33:27;;;;;;;0.65;0.40;;;14.80;1.00;;;;;;6234179;22;20019;-76
2023/11/05 12:35:59;;;;;;;0.55;0.40;;;14.80;1.00;;;;;;6235594;22;20027;-75
2023/11/05 12:38:27;;;;;;;0.65;0.47;;;14.60;1.00;;;;;;6261944;22;20015;-75
2023/11/05 12:40:54;;;;;;;0.82;0.57;;;14.50;1.00;;;;;;6210145;22;20028;-74
2023/11/05 12:43:23;;;;;;;0.73;0.50;;;14.80;1.00;;;;;;6261333;22;20019;-75
2023/11/05 12:45:58;;;;;;;0.80;0.55;;;15.40;1.00;;;;;;6258973;22;20081;-75
2023/11/05 12:48:26;;;;;;;1.60;0.55;;;15.80;1.00;;;;;;6236170;22;20471;-75
2023/11/05 12:51:02;;;;;;;0.95;0.65;;;16.10;1.00;;;;;;6236517;22;20024;-79
2023/11/05 12:53:31;;;;;;;3.25;0.73;;;16.30;1.00;;;;;;6263000;22;20614;-76
2023/11/05 12:56:08;;;;;;;0.43;0.40;;;16.50;1.00;;;;;;6212607;22;20031;-77
2023/11/05 12:58:37;;;;;;;0.57;0.50;;;16.60;1.00;;;;;;6236299;22;20107;-77
2023/11/05 13:01:04;;;;;;;1.55;0.63;;;16.30;1.00;;;;;;6235765;22;20023;-75
2023/11/05 13:03:32;;;;;;;0.82;0.60;;;15.80;1.00;;;;;;6234730;22;20027;-75
2023/11/05 13:06:06;;;;;;;0.77;0.47;;;15.40;1.00;;;;;;6210880;22;20026;-75
2023/11/05 13:08:36;;;;;;;1.08;0.73;;;15.30;1.00;;;;;;6263228;22;20408;-81
2023/11/05 13:11:04;;;;;;;0.50;0.30;;;15.10;1.00;;;;;;6186501;22;20026;-87
2023/11/05 13:13:32;;;;;;;0.68;0.40;;;14.80;1.00;;;;;;6237781;22;20117;-87
2023/11/05 13:15:59;;;;;;;0.77;0.55;;;14.60;1.00;;;;;;6262776;22;20030;-81
2023/11/05 13:18:26;;;;;;;1.27;0.60;;;14.50;1.00;;;;;;6211675;22;20023;-87
2023/11/05 13:20:52;;;;;;;0.70;0.30;;;14.40;1.00;;;;;;6263416;22;20047;-85
2023/11/05 13:23:20;;;;;;;1.52;0.40;;;14.30;1.00;;;;;;6236057;22;20492;-76
2023/11/05 13:25:47;;;;;;;0.68;0.50;;;14.30;1.00;;;;;;6236793;22;20174;-85
2023/11/05 13:28:14;;;;;;;0.30;0.30;;;14.30;1.00;;;;;;6234782;22;20457;-76
2023/11/05 13:30:41;;;;;;;0.68;0.45;;;14.40;1.00;;;;;;6235405;22;20055;-83
2023/11/05 13:33:08;;;;;;;0.50;0.50;;;14.50;1.00;;;;;;6260845;22;20015;-82
2023/11/05 13:35:35;;;;;;;0.98;0.47;;;14.40;1.00;;;;;;6235586;22;20055;-86
2023/11/05 13:38:02;;;;;;;0.73;0.68;;;14.20;1.00;;;;;;6263786;22;20058;-79
2023/11/05 13:40:35;;;;;;;1.00;0.70;;;14.10;1.00;;;;;;6262941;22;20031;-81
2023/11/05 13:43:02;;;;;;;0.75;0.50;;;13.90;1.00;;;;;;6209700;22;20061;-76
2023/11/05 13:45:29;;;;;;;0.70;0.30;;;13.80;1.00;;;;;;6210099;22;20054;-77
2023/11/05 13:47:56;;;;;;;1.15;0.40;;;13.70;1.00;;;;;;6259978;22;20051;-75
2023/11/05 13:50:23;;;;;;;0.88;0.75;;;13.70;1.00;;;;;;6241680;22;20397;-86
2023/11/05 13:52:49;;;;;;;0.38;0.30;;;13.70;1.00;;;;;;6268459;22;20023;-83
2023/11/05 13:55:16;;;;;;;0.50;0.30;;;13.60;1.00;;;;;;6214409;22;20034;-83
2023/11/05 13:57:43;;;;;;;0.45;0.40;;;14.00;1.00;;;;;;6261462;22;20059;-85
2023/11/05 14:00:13;;;;;;;0.82;0.55;;;14.80;1.00;;;;;;6262015;22;20461;-75
2023/11/05 14:02:41;;;;;;;0.40;0.40;;;15.60;1.00;;;;;;6210613;22;20074;-77
2023/11/05 14:05:09;;;;;;;0.63;0.32;;;16.30;1.00;;;;;;6210632;22;20055;-83
2023/11/05 14:07:37;;;;;;;1.00;0.50;;;16.40;1.00;;;;;;6210214;22;20392;-82
2023/11/05 14:10:06;;;;;;;0.52;0.43;;;16.50;1.00;;;;;;6235085;22;20067;-82
2023/11/05 14:12:35;;;;;;;0.82;0.38;;;16.10;1.00;;;;;;6235270;22;20046;-87
2023/11/05 14:15:05;;;;;;;1.13;0.40;;;15.60;1.00;;;;;;6234762;22;20024;-80
2023/11/05 14:17:32;;;;;;;0.90;0.40;;;15.20;1.00;;;;;;6235992;22;20118;-83
2023/11/05 14:19:59;;;;;;;0.57;0.55;;;14.70;1.00;;;;;;6210524;22;20251;-87
2023/11/05 14:22:27;;;;;;;0.82;0.45;;;14.30;1.00;;;;;;6260850;22;20027;-75
2023/11/05 14:24:54;;;;;;;0.40;0.30;;;14.00;1.00;;;;;;6259821;22;20536;-77
2023/11/05 14:27:21;;;;;;;0.30;0.30;;;14.10;1.00;;;;;;6208607;22;20070;-75
2023/11/05 14:29:48;;;;;;;0.90;0.70;;;14.10;1.00;;;;;;6234114;22;20035;-76
2023/11/05 14:32:17;;;;;;;0.85;0.55;;;14.50;1.00;;;;;;6208285;22;20023;-80
2023/11/05 14:34:44;;;;;;;0.40;0.30;;;15.20;1.00;;;;;;6209532;22;20074;-82
2023/11/05 14:37:11;;;;;;;0.75;0.40;;;15.80;1.00;;;;;;6234817;22;20433;-77
2023/11/05 14:39:39;;;;;;;1.27;0.60;;;15.80;1.00;;;;;;6261031;22;20027;-81
2023/11/05 14:42:06;;;;;;;0.52;0.45;;;16.30;1.00;;;;;;6235143;22;20048;-78
2023/11/05 14:44:34;;;;;;;0.85;0.50;;;16.20;1.00;;;;;;6208998;22;20377;-83
2023/11/05 14:47:02;;;;;;;0.52;0.45;;;15.70;1.00;;;;;;6232514;22;20022;-86
2023/11/05 14:49:29;;;;;;;0.50;0.47;;;15.10;1.00;;;;;;6234368;22;20028;-76
2023/11/05 14:51:57;;;;;;;1.13;0.80;;;14.60;1.00;;;;;;6209178;22;20366;-80
2023/11/05 14:54:24;;;;;;;0.77;0.50;;;14.20;1.00;;;;;;6260239;22;20349;-74
2023/11/05 14:56:51;;;;;;;0.70;0.50;;;13.90;1.00;;;;;;6259926;22;20019;-79
2023/11/05 14:59:18;;;;;;;0.50;0.50;;;13.60;1.00;;;;;;6208424;22;20019;-77
2023/11/05 15:01:45;;;;;;;1.00;0.50;;;13.40;1.00;;;;;;6234443;22;20020;-78
2023/11/05 15:04:12;;;;;;;1.60;0.60;;;13.40;1.00;;;;;;6184480;22;20485;-74
2023/11/05 15:06:39;;;;;;;1.40;0.65;;;13.40;1.00;;;;;;6235529;22;20644;-82